createdAt,value
2016-05-20T00:00:41.348Z,12.45
2016-05-20T00:01:41.382Z,12.57
2016-05-20T00:02:41.431Z,12.5
2016-05-20T00:03:41.449Z,12.54
2016-05-20T00:04:41.483Z,12.54
2016-05-20T00:05:41.517Z,12.58
2016-05-20T00:06:41.582Z,12.76
2016-05-20T00:07:41.585Z,12.65
2016-05-20T00:08:41.634Z,12.73
2016-05-20T00:09:41.934Z,12.72
2016-05-20T00:10:41.687Z,12.8
2016-05-20T00:11:41.564Z,12.8
2016-05-20T00:12:41.598Z,12.8
2016-05-20T00:13:41.788Z,12.82
2016-05-20T00:14:41.667Z,12.78
2016-05-20T00:15:41.856Z,12.78
2016-05-20T00:16:41.891Z,12.73
2016-05-20T00:17:41.925Z,12.79
2016-05-20T00:18:41.958Z,12.78
2016-05-20T00:19:41.992Z,12.73
2016-05-20T00:20:42.027Z,12.75
2016-05-20T00:21:41.904Z,12.75
2016-05-20T00:22:42.094Z,12.7
2016-05-20T00:23:41.972Z,12.78
2016-05-20T00:24:42.162Z,12.58
2016-05-20T00:25:42.196Z,12.61
2016-05-20T00:26:42.245Z,12.57
2016-05-20T00:27:42.107Z,12.58
2016-05-20T00:28:42.141Z,12.6
2016-05-20T00:29:42.019Z,12.62
2016-05-20T00:30:42.382Z,12.57
2016-05-20T00:31:42.399Z,12.61
2016-05-20T00:32:42.434Z,12.6
2016-05-20T00:33:42.468Z,12.58
2016-05-20T00:34:42.518Z,12.55
2016-05-20T00:35:42.535Z,12.53
2016-05-20T00:36:42.570Z,12.53
2016-05-20T00:37:42.603Z,12.55
2016-05-20T00:38:42.637Z,12.49
2016-05-20T00:39:43.031Z,12.55
2016-05-20T00:40:42.548Z,12.47
2016-05-20T00:41:42.739Z,12.5
2016-05-20T00:42:42.772Z,12.42
2016-05-20T00:43:42.650Z,12.45
2016-05-20T00:44:42.842Z,12.46
2016-05-20T00:45:42.875Z,12.45
2016-05-20T00:46:42.924Z,12.45
2016-05-20T00:47:42.942Z,12.58
2016-05-20T00:48:42.992Z,12.6
2016-05-20T00:49:43.011Z,12.57
2016-05-20T00:50:43.044Z,12.54
2016-05-20T00:51:43.078Z,12.5
2016-05-20T00:52:43.113Z,12.55
2016-05-20T00:53:43.162Z,12.58
2016-05-20T00:54:43.211Z,12.58
2016-05-20T00:55:43.214Z,12.58
2016-05-20T00:56:43.091Z,12.58
2016-05-20T00:57:43.282Z,12.61
2016-05-20T00:58:43.316Z,12.55
2016-05-20T00:59:43.350Z,12.61
2016-05-20T01:00:43.384Z,12.62
2016-05-20T01:01:43.418Z,12.62
2016-05-20T01:02:43.452Z,12.58
2016-05-20T01:03:43.330Z,12.58
2016-05-20T01:04:43.520Z,12.58
2016-05-20T01:05:43.288Z,12.53
2016-05-20T01:06:43.572Z,12.53
2016-05-20T01:07:43.543Z,12.55
2016-05-20T01:08:43.656Z,12.62
2016-05-20T01:09:43.689Z,12.62
2016-05-20T01:10:43.786Z,12.64
2016-05-20T01:11:43.600Z,12.65
2016-05-20T01:12:43.634Z,12.72
2016-05-20T01:13:43.810Z,12.76
2016-05-20T01:14:43.702Z,12.68
2016-05-20T01:15:43.752Z,12.7
2016-05-20T01:16:43.770Z,12.68
2016-05-20T01:17:43.945Z,12.76
2016-05-20T01:18:43.980Z,12.65
2016-05-20T01:19:43.872Z,12.79
2016-05-20T01:20:44.063Z,12.75
2016-05-20T01:21:44.096Z,12.79
2016-05-20T01:22:44.130Z,12.85
2016-05-20T01:23:44.164Z,12.78
2016-05-20T01:24:44.385Z,12.76
2016-05-20T01:25:44.216Z,12.86
2016-05-20T01:26:44.266Z,12.94
2016-05-20T01:27:44.285Z,12.86
2016-05-20T01:28:44.335Z,12.91
2016-05-20T01:29:44.352Z,12.95
2016-05-20T01:30:44.387Z,12.97
2016-05-20T01:31:44.280Z,12.95
2016-05-20T01:32:44.470Z,12.95
2016-05-20T01:33:44.504Z,13
2016-05-20T01:34:44.523Z,12.95
2016-05-20T01:35:44.571Z,12.98
2016-05-20T01:36:44.590Z,12.98
2016-05-20T01:37:44.624Z,13
2016-05-20T01:38:44.673Z,12.91
2016-05-20T01:39:44.973Z,13.05
2016-05-20T01:40:44.725Z,12.93
2016-05-20T01:41:44.760Z,13.03
2016-05-20T01:42:44.795Z,13.12
2016-05-20T01:43:44.686Z,13.12
2016-05-20T01:44:44.706Z,13.04
2016-05-20T01:45:44.895Z,13.05
2016-05-20T01:46:44.945Z,13.01
2016-05-20T01:47:44.808Z,13.03
2016-05-20T01:48:44.856Z,13.04
2016-05-20T01:49:45.031Z,12.98
2016-05-20T01:50:45.065Z,12.87
2016-05-20T01:51:45.099Z,12.91
2016-05-20T01:52:45.133Z,12.95
2016-05-20T01:53:45.166Z,12.86
2016-05-20T01:54:45.451Z,12.91
2016-05-20T01:55:45.235Z,12.91
2016-05-20T01:56:45.269Z,12.95
2016-05-20T01:57:45.302Z,12.94
2016-05-20T01:58:45.337Z,12.91
2016-05-20T01:59:45.371Z,12.9
2016-05-20T02:00:45.405Z,12.78
2016-05-20T02:01:45.454Z,12.76
2016-05-20T02:02:45.473Z,12.78
2016-05-20T02:03:45.537Z,12.82
2016-05-20T02:04:45.556Z,12.65
2016-05-20T02:05:45.574Z,12.75
2016-05-20T02:06:45.608Z,12.73
2016-05-20T02:07:45.642Z,12.6
2016-05-20T02:08:45.676Z,12.55
2016-05-20T02:09:45.570Z,12.78
2016-05-20T02:10:45.745Z,12.7
2016-05-20T02:11:45.779Z,12.73
2016-05-20T02:12:45.656Z,12.75
2016-05-20T02:13:45.846Z,12.64
2016-05-20T02:14:45.739Z,12.73
2016-05-20T02:15:45.928Z,12.78
2016-05-20T02:16:45.948Z,12.78
2016-05-20T02:17:45.981Z,12.72
2016-05-20T02:18:45.859Z,12.75
2016-05-20T02:19:46.065Z,12.75
2016-05-20T02:20:46.083Z,12.75
2016-05-20T02:21:46.117Z,12.57
2016-05-20T02:22:46.151Z,12.64
2016-05-20T02:23:46.186Z,12.61
2016-05-20T02:24:46.078Z,12.54
2016-05-20T02:25:46.285Z,12.61
2016-05-20T02:26:46.288Z,12.7
2016-05-20T02:27:46.165Z,12.6
2016-05-20T02:28:46.371Z,12.6
2016-05-20T02:29:46.388Z,12.6
2016-05-20T02:30:46.423Z,12.6
2016-05-20T02:31:46.457Z,12.61
2016-05-20T02:32:46.490Z,12.45
2016-05-20T02:33:46.524Z,12.55
2016-05-20T02:34:46.558Z,12.54
2016-05-20T02:35:46.592Z,12.45
2016-05-20T02:36:46.470Z,12.47
2016-05-20T02:37:46.660Z,12.39
2016-05-20T02:38:46.663Z,12.39
2016-05-20T02:39:46.416Z,12.27
2016-05-20T02:40:46.606Z,12.32
2016-05-20T02:41:46.812Z,12.31
2016-05-20T02:42:46.831Z,12.39
2016-05-20T02:43:46.551Z,12.4
2016-05-20T02:44:46.648Z,12.32
2016-05-20T02:45:46.994Z,12.27
2016-05-20T02:46:46.809Z,12.18
2016-05-20T02:47:47.015Z,12.25
2016-05-20T02:48:47.050Z,12.28
2016-05-20T02:49:47.067Z,12.29
2016-05-20T02:50:47.086Z,12.24
2016-05-20T02:51:47.136Z,12.28
2016-05-20T02:52:47.170Z,12.22
2016-05-20T02:53:47.047Z,12.15
2016-05-20T02:54:47.441Z,12.07
2016-05-20T02:55:47.256Z,12.18
2016-05-20T02:56:47.305Z,12.17
2016-05-20T02:57:47.324Z,12.06
2016-05-20T02:58:47.373Z,12.13
2016-05-20T02:59:47.391Z,12.03
2016-05-20T03:00:47.425Z,12.04
2016-05-20T03:01:47.475Z,12.02
2016-05-20T03:02:47.494Z,12.02
2016-05-20T03:03:47.526Z,11.87
2016-05-20T03:04:47.561Z,11.97
2016-05-20T03:05:47.595Z,11.91
2016-05-20T03:06:47.645Z,11.91
2016-05-20T03:07:47.663Z,11.88
2016-05-20T03:08:47.540Z,11.88
2016-05-20T03:09:48.199Z,11.83
2016-05-20T03:10:47.765Z,11.8
2016-05-20T03:11:47.798Z,11.88
2016-05-20T03:12:47.832Z,11.88
2016-05-20T03:13:47.866Z,11.86
2016-05-20T03:14:47.900Z,11.9
2016-05-20T03:15:47.935Z,11.94
2016-05-20T03:16:47.968Z,11.91
2016-05-20T03:17:47.986Z,11.88
2016-05-20T03:18:48.021Z,11.78
2016-05-20T03:19:48.055Z,11.91
2016-05-20T03:20:48.103Z,11.83
2016-05-20T03:21:47.981Z,11.84
2016-05-20T03:22:48.172Z,11.66
2016-05-20T03:23:48.205Z,11.73
2016-05-20T03:24:48.239Z,11.69
2016-05-20T03:25:48.259Z,11.7
2016-05-20T03:26:48.291Z,11.66
2016-05-20T03:27:48.326Z,11.63
2016-05-20T03:28:48.360Z,11.78
2016-05-20T03:29:48.238Z,11.8
2016-05-20T03:30:48.428Z,11.78
2016-05-20T03:31:48.305Z,11.86
2016-05-20T03:32:48.496Z,11.86
2016-05-20T03:33:48.529Z,11.86
2016-05-20T03:34:48.563Z,11.87
2016-05-20T03:35:48.598Z,11.78
2016-05-20T03:36:48.631Z,11.63
2016-05-20T03:37:48.509Z,11.68
2016-05-20T03:38:48.699Z,11.77
2016-05-20T03:39:48.812Z,11.7
2016-05-20T03:40:48.767Z,11.83
2016-05-20T03:41:48.629Z,11.75
2016-05-20T03:42:48.820Z,11.87
2016-05-20T03:43:48.870Z,11.78
2016-05-20T03:44:48.731Z,11.83
2016-05-20T03:45:48.921Z,11.88
2016-05-20T03:46:48.955Z,11.86
2016-05-20T03:47:48.989Z,11.84
2016-05-20T03:48:49.022Z,11.88
2016-05-20T03:49:49.056Z,11.88
2016-05-20T03:50:49.106Z,11.81
2016-05-20T03:51:49.125Z,11.87
2016-05-20T03:52:49.159Z,11.83
2016-05-20T03:53:49.193Z,11.73
2016-05-20T03:54:49.242Z,11.81
2016-05-20T03:55:49.261Z,11.86
2016-05-20T03:56:49.139Z,11.9
2016-05-20T03:57:49.328Z,11.95
2016-05-20T03:58:49.363Z,11.94
2016-05-20T03:59:49.396Z,11.95
2016-05-20T04:00:49.430Z,12.07
2016-05-20T04:01:49.449Z,12.07
2016-05-20T04:02:49.499Z,12.07
2016-05-20T04:03:49.516Z,12.04
2016-05-20T04:04:49.551Z,12.02
2016-05-20T04:05:49.585Z,12.1
2016-05-20T04:06:49.635Z,12.09
2016-05-20T04:07:49.668Z,12.21
2016-05-20T04:08:49.561Z,12.06
2016-05-20T04:09:50.471Z,12.29
2016-05-20T04:10:49.754Z,12.15
2016-05-20T04:11:49.788Z,12.2
2016-05-20T04:12:49.822Z,12.27
2016-05-20T04:13:49.715Z,12.28
2016-05-20T04:14:49.734Z,12.35
2016-05-20T04:15:49.924Z,12.49
2016-05-20T04:16:49.802Z,12.5
2016-05-20T04:17:49.992Z,12.42
2016-05-20T04:18:50.026Z,12.45
2016-05-20T04:19:50.060Z,12.58
2016-05-20T04:20:50.094Z,12.58
2016-05-20T04:21:50.112Z,12.46
2016-05-20T04:22:50.161Z,12.47
2016-05-20T04:23:50.195Z,12.65
2016-05-20T04:24:50.448Z,12.93
2016-05-20T04:25:50.263Z,12.95
2016-05-20T04:26:50.297Z,13
2016-05-20T04:27:50.330Z,12.86
2016-05-20T04:28:50.365Z,12.73
2016-05-20T04:29:50.384Z,12.6
2016-05-20T04:30:50.417Z,12.54
2016-05-20T04:31:50.311Z,12.58
2016-05-20T04:32:50.501Z,12.39
2016-05-20T04:33:50.550Z,12.47
2016-05-20T04:34:50.553Z,12.35
2016-05-20T04:35:50.602Z,12.42
2016-05-20T04:36:50.637Z,12.43
2016-05-20T04:37:50.342Z,12.43
2016-05-20T04:38:50.705Z,12.39
2016-05-20T04:39:50.755Z,12.47
2016-05-20T04:40:50.773Z,12.55
2016-05-20T04:41:50.807Z,12.46
2016-05-20T04:42:50.824Z,12.39
2016-05-20T04:43:50.874Z,12.4
2016-05-20T04:44:50.737Z,12.4
2016-05-20T04:45:50.926Z,12.6
2016-05-20T04:46:50.820Z,12.58
2016-05-20T04:47:50.994Z,12.46
2016-05-20T04:48:51.028Z,12.55
2016-05-20T04:49:51.078Z,12.6
2016-05-20T04:50:51.095Z,12.55
2016-05-20T04:51:50.990Z,12.58
2016-05-20T04:52:51.195Z,12.72
2016-05-20T04:53:51.214Z,12.61
2016-05-20T04:54:51.170Z,12.68
2016-05-20T04:55:51.266Z,12.91
2016-05-20T04:56:51.158Z,13.03
2016-05-20T04:57:51.177Z,13.18
2016-05-20T04:58:51.367Z,13.25
2016-05-20T04:59:51.402Z,13.37
2016-05-20T05:00:51.435Z,13.42
2016-05-20T05:01:51.486Z,13.41
2016-05-20T05:02:51.518Z,13.47
2016-05-20T05:03:51.552Z,13.39
2016-05-20T05:04:51.431Z,13.37
2016-05-20T05:05:51.605Z,13.38
2016-05-20T05:06:51.639Z,13.31
2016-05-20T05:07:51.688Z,13.35
2016-05-20T05:08:51.723Z,13.44
2016-05-20T05:09:51.647Z,13.52
2016-05-20T05:10:51.790Z,13.59
2016-05-20T05:11:51.824Z,13.59
2016-05-20T05:12:51.701Z,13.6
2016-05-20T05:13:51.892Z,13.75
2016-05-20T05:14:51.770Z,13.72
2016-05-20T05:15:51.976Z,13.79
2016-05-20T05:16:51.979Z,13.83
2016-05-20T05:17:52.028Z,13.93
2016-05-20T05:18:51.906Z,13.96
2016-05-20T05:19:51.940Z,13.95
2016-05-20T05:20:52.131Z,14.03
2016-05-20T05:21:52.179Z,13.89
2016-05-20T05:22:52.041Z,13.99
2016-05-20T05:23:52.248Z,14.12
2016-05-20T05:24:51.969Z,14.1
2016-05-20T05:25:52.143Z,14.15
2016-05-20T05:26:52.349Z,14.25
2016-05-20T05:27:52.367Z,14.18
2016-05-20T05:28:52.417Z,14.07
2016-05-20T05:29:52.436Z,14.07
2016-05-20T05:30:52.485Z,13.92
2016-05-20T05:31:52.519Z,14.03
2016-05-20T05:32:52.413Z,14.03
2016-05-20T05:33:52.587Z,14.08
2016-05-20T05:34:52.621Z,14.2
2016-05-20T05:35:52.655Z,14.12
2016-05-20T05:36:52.688Z,14.3
2016-05-20T05:37:52.738Z,14.36
2016-05-20T05:38:52.616Z,14.51
2016-05-20T05:39:53.056Z,14.63
2016-05-20T05:40:52.841Z,14.73
2016-05-20T05:41:52.562Z,14.85
2016-05-20T05:42:52.907Z,14.84
2016-05-20T05:43:52.771Z,14.84
2016-05-20T05:44:52.834Z,14.99
2016-05-20T05:45:53.026Z,15.19
2016-05-20T05:46:53.059Z,15.7
2016-05-20T05:47:52.921Z,16.17
2016-05-20T05:48:53.126Z,16.57
2016-05-20T05:49:53.162Z,16.96
2016-05-20T05:50:52.882Z,16.91
2016-05-20T05:51:53.229Z,16.54
2016-05-20T05:52:53.262Z,16.01
2016-05-20T05:53:53.297Z,15.84
2016-05-20T05:54:53.393Z,15.86
2016-05-20T05:55:53.380Z,15.98
2016-05-20T05:56:53.415Z,15.97
2016-05-20T05:57:53.292Z,16.02
2016-05-20T05:58:53.496Z,15.98
2016-05-20T05:59:53.433Z,15.86
2016-05-20T06:00:53.668Z,15.72
2016-05-20T06:01:53.591Z,15.61
2016-05-20T06:02:53.825Z,15.4
2016-05-20T06:03:53.894Z,15.14
2016-05-20T06:04:53.945Z,15.09
2016-05-20T06:05:54.011Z,14.96
2016-05-20T06:06:53.748Z,14.72
2016-05-20T06:07:54.127Z,14.77
2016-05-20T06:08:54.174Z,14.58
2016-05-20T06:09:54.041Z,14.47
2016-05-20T06:10:54.252Z,14.45
2016-05-20T06:11:54.277Z,14.47
2016-05-20T06:12:54.191Z,14.45
2016-05-20T06:13:54.370Z,14.54
2016-05-20T06:14:54.406Z,14.63
2016-05-20T06:15:54.457Z,14.7
2016-05-20T06:16:54.478Z,14.69
2016-05-20T06:17:54.530Z,14.82
2016-05-20T06:18:54.394Z,14.84
2016-05-20T06:19:54.599Z,14.66
2016-05-20T06:20:54.636Z,14.78
2016-05-20T06:21:54.653Z,14.69
2016-05-20T06:22:54.705Z,14.58
2016-05-20T06:23:54.755Z,14.65
2016-05-20T06:24:54.804Z,14.51
2016-05-20T06:25:54.652Z,14.43
2016-05-20T06:26:54.858Z,14.2
2016-05-20T06:27:54.736Z,14.23
2016-05-20T06:28:54.770Z,14.28
2016-05-20T06:29:54.834Z,14.14
2016-05-20T06:30:54.994Z,14.22
2016-05-20T06:31:55.044Z,14.2
2016-05-20T06:32:55.078Z,14.32
2016-05-20T06:33:55.095Z,14.15
2016-05-20T06:34:55.130Z,14.1
2016-05-20T06:35:55.023Z,13.99
2016-05-20T06:36:55.214Z,14.03
2016-05-20T06:37:55.091Z,13.89
2016-05-20T06:38:55.281Z,13.9
2016-05-20T06:39:55.597Z,13.86
2016-05-20T06:40:55.193Z,13.87
2016-05-20T06:41:55.382Z,13.89
2016-05-20T06:42:55.261Z,13.9
2016-05-20T06:43:55.310Z,13.96
2016-05-20T06:44:55.485Z,14.12
2016-05-20T06:45:55.377Z,14.11
2016-05-20T06:46:55.412Z,14.08
2016-05-20T06:47:55.602Z,14.07
2016-05-20T06:48:55.307Z,14.05
2016-05-20T06:49:55.654Z,14.08
2016-05-20T06:50:55.548Z,14.15
2016-05-20T06:51:55.738Z,14.14
2016-05-20T06:52:55.615Z,14.08
2016-05-20T06:53:55.806Z,14.07
2016-05-20T06:54:55.856Z,14.11
2016-05-20T06:55:56.187Z,14.15
2016-05-20T06:56:55.923Z,14.14
2016-05-20T06:57:55.785Z,14.2
2016-05-20T06:58:55.976Z,14.22
2016-05-20T06:59:56.009Z,14.17
2016-05-20T07:00:55.903Z,13.97
2016-05-20T07:01:56.109Z,14.04
2016-05-20T07:02:56.111Z,14.03
2016-05-20T07:03:55.989Z,14
2016-05-20T07:04:56.194Z,13.87
2016-05-20T07:05:56.056Z,13.92
2016-05-20T07:06:56.263Z,13.92
2016-05-20T07:07:56.297Z,13.95
2016-05-20T07:08:56.330Z,13.86
2016-05-20T07:09:56.786Z,13.99
2016-05-20T07:10:56.242Z,14.04
2016-05-20T07:11:56.433Z,14.22
2016-05-20T07:12:56.310Z,14.29
2016-05-20T07:13:56.500Z,14.2
2016-05-20T07:14:56.535Z,14.29
2016-05-20T07:15:56.584Z,14.3
2016-05-20T07:16:56.618Z,14.28
2016-05-20T07:17:56.668Z,14.33
2016-05-20T07:18:56.686Z,14.44
2016-05-20T07:19:56.719Z,14.47
2016-05-20T07:20:56.596Z,14.37
2016-05-20T07:21:56.787Z,14.41
2016-05-20T07:22:56.821Z,14.37
2016-05-20T07:23:56.855Z,14.3
2016-05-20T07:24:57.092Z,14.1
2016-05-20T07:25:56.923Z,14.05
2016-05-20T07:26:56.957Z,14.18
2016-05-20T07:27:56.835Z,14.3
2016-05-20T07:28:57.025Z,14.33
2016-05-20T07:29:57.059Z,14.32
2016-05-20T07:30:57.093Z,14.4
2016-05-20T07:31:57.159Z,14.47
2016-05-20T07:32:57.020Z,14.3
2016-05-20T07:33:57.226Z,14.25
2016-05-20T07:34:57.245Z,14.29
2016-05-20T07:35:57.278Z,14.45
2016-05-20T07:36:57.327Z,14.48
2016-05-20T07:37:57.361Z,14.54
2016-05-20T07:38:57.380Z,14.66
2016-05-20T07:39:57.367Z,14.65
2016-05-20T07:40:57.447Z,14.7
2016-05-20T07:41:57.482Z,14.6
2016-05-20T07:42:57.531Z,14.73
2016-05-20T07:43:57.566Z,14.7
2016-05-20T07:44:57.615Z,14.77
2016-05-20T07:45:57.649Z,14.63
2016-05-20T07:46:57.511Z,14.81
2016-05-20T07:47:57.685Z,14.66
2016-05-20T07:48:57.579Z,14.72
2016-05-20T07:49:57.785Z,14.78
2016-05-20T07:50:57.803Z,14.62
2016-05-20T07:51:57.697Z,14.6
2016-05-20T07:52:57.870Z,14.65
2016-05-20T07:53:57.904Z,14.54
2016-05-20T07:54:57.970Z,14.58
2016-05-20T07:55:57.816Z,14.5
2016-05-20T07:56:58.022Z,14.6
2016-05-20T07:57:58.056Z,14.66
2016-05-20T07:58:58.090Z,14.77
2016-05-20T08:00:04.281Z,14.77
2016-05-20T08:00:58.189Z,14.78
2016-05-20T08:01:58.207Z,14.78
2016-05-20T08:02:58.226Z,14.82
2016-05-20T08:03:58.275Z,14.88
2016-05-20T08:04:58.309Z,14.72
2016-05-20T08:05:58.187Z,14.96
2016-05-20T08:06:58.220Z,14.96
2016-05-20T08:07:58.427Z,14.92
2016-05-20T08:08:58.461Z,14.97
2016-05-20T08:09:58.683Z,15.02
2016-05-20T08:10:58.903Z,15.03
2016-05-20T08:11:58.547Z,15.06
2016-05-20T08:12:58.581Z,15
2016-05-20T08:13:58.614Z,14.94
2016-05-20T08:14:58.649Z,14.88
2016-05-20T08:15:58.542Z,15.04
2016-05-20T08:16:58.717Z,15.07
2016-05-20T08:17:58.782Z,15.15
2016-05-20T08:18:58.816Z,15.17
2016-05-20T08:20:02.802Z,15.21
2016-05-20T08:21:02.665Z,15.24
2016-05-20T08:21:58.918Z,15.31
2016-05-20T08:23:03.013Z,15.31
2016-05-20T08:23:58.985Z,15.51
2016-05-20T08:25:02.160Z,15.7
2016-05-20T08:25:58.913Z,15.76
2016-05-20T08:26:59.087Z,15.73
2016-05-20T08:27:59.121Z,15.64
2016-05-20T08:28:59.170Z,15.65
2016-05-20T08:29:59.251Z,15.42
2016-05-20T08:30:59.239Z,15.57
2016-05-20T08:31:59.272Z,15.61
2016-05-20T08:33:59.340Z,15.62
2016-05-20T08:35:06.140Z,15.7
2016-05-20T08:35:59.252Z,15.76
2016-05-20T08:36:59.301Z,15.83
2016-05-20T08:37:59.179Z,15.95
2016-05-20T08:38:59.213Z,15.92
2016-05-20T08:39:59.638Z,15.86
2016-05-20T08:40:59.641Z,15.86
2016-05-20T08:41:59.644Z,15.97
2016-05-20T08:42:59.662Z,15.95
2016-05-20T08:43:59.711Z,16.08
2016-05-20T08:44:59.729Z,16.02
2016-05-20T08:45:59.872Z,16.05
2016-05-20T08:46:59.813Z,15.91
2016-05-20T08:47:59.847Z,15.88
2016-05-20T08:48:59.881Z,15.83
2016-05-20T08:49:59.915Z,15.86
2016-05-20T08:50:59.949Z,15.95
2016-05-20T08:51:59.999Z,16.04
2016-05-20T08:52:59.719Z,16.13
2016-05-20T08:54:00.066Z,16.26
2016-05-20T08:55:00.099Z,16.28
2016-05-20T08:56:00.150Z,16.2
2016-05-20T08:57:00.184Z,16.13
2016-05-20T08:58:00.217Z,16.12
2016-05-20T08:59:00.252Z,16.29
2016-05-20T09:00:00.285Z,16.24
2016-05-20T09:01:00.335Z,16.38
2016-05-20T09:02:00.368Z,16.41
2016-05-20T09:03:00.403Z,16.43
2016-05-20T09:04:00.453Z,16.49
2016-05-20T09:05:00.315Z,16.31
2016-05-20T09:06:00.520Z,16.32
2016-05-20T09:07:00.553Z,16.33
2016-05-20T09:08:00.589Z,16.17
2016-05-20T09:09:00.653Z,16.17
2016-05-20T09:10:00.828Z,16.36
2016-05-20T09:11:00.534Z,16.35
2016-05-20T09:12:00.724Z,16.35
2016-05-20T09:13:00.773Z,16.39
2016-05-20T09:14:00.651Z,16.24
2016-05-20T09:15:00.841Z,16.09
2016-05-20T09:16:00.875Z,16.08
2016-05-20T09:17:00.925Z,16.21
2016-05-20T09:18:00.959Z,16.28
2016-05-20T09:19:00.994Z,16.23
2016-05-20T09:20:01.027Z,16.23
2016-05-20T09:21:00.936Z,16.33
2016-05-20T09:22:01.141Z,16.12
2016-05-20T09:23:01.144Z,16.09
2016-05-20T09:24:01.163Z,16.04
2016-05-20T09:25:00.962Z,16.01
2016-05-20T09:26:01.246Z,15.98
2016-05-20T09:27:01.279Z,15.9
2016-05-20T09:28:01.314Z,15.84
2016-05-20T09:29:01.363Z,15.91
2016-05-20T09:30:01.398Z,15.97
2016-05-20T09:31:01.291Z,15.98
2016-05-20T09:32:01.465Z,16.01
2016-05-20T09:33:01.515Z,16.04
2016-05-20T09:34:05.205Z,16
2016-05-20T09:35:01.582Z,15.98
2016-05-20T09:36:01.617Z,16.09
2016-05-20T09:37:01.666Z,16
2016-05-20T09:38:01.715Z,15.83
2016-05-20T09:39:01.593Z,15.92
2016-05-20T09:40:03.142Z,15.91
2016-05-20T09:41:01.802Z,15.9
2016-05-20T09:42:01.836Z,15.97
2016-05-20T09:43:01.870Z,15.86
2016-05-20T09:44:01.764Z,15.95
2016-05-20T09:45:01.938Z,15.98
2016-05-20T09:46:02.003Z,16.05
2016-05-20T09:47:02.021Z,16.05
2016-05-20T09:48:02.055Z,16.02
2016-05-20T09:49:02.089Z,16.1
2016-05-20T09:50:02.139Z,16.02
2016-05-20T09:51:02.172Z,16.15
2016-05-20T09:52:02.050Z,16.17
2016-05-20T09:53:02.241Z,16.16
2016-05-20T09:54:02.274Z,16.12
2016-05-20T09:55:02.683Z,16.32
2016-05-20T09:56:02.342Z,16.33
2016-05-20T09:57:02.392Z,16.36
2016-05-20T09:58:02.269Z,16.39
2016-05-20T09:59:02.459Z,16.43
2016-05-20T10:00:02.509Z,16.5
2016-05-20T10:01:02.527Z,16.35
2016-05-20T10:02:02.421Z,16.24
2016-05-20T10:03:02.612Z,16.15
2016-05-20T10:04:02.645Z,16.08
2016-05-20T10:05:02.679Z,16
2016-05-20T10:06:02.557Z,15.95
2016-05-20T10:07:02.748Z,16
2016-05-20T10:08:02.781Z,16.12
2016-05-20T10:09:02.815Z,16.05
2016-05-20T10:10:02.895Z,16.17
2016-05-20T10:11:02.898Z,16.01
2016-05-20T10:12:02.932Z,15.97
2016-05-20T10:13:02.966Z,15.91
2016-05-20T10:14:03.000Z,16.08
2016-05-20T10:15:03.050Z,16.12
2016-05-20T10:16:03.099Z,16.13
2016-05-20T10:17:03.117Z,16.12
2016-05-20T10:18:02.995Z,16.13
2016-05-20T10:19:03.185Z,16.36
2016-05-20T10:20:03.235Z,16.15
2016-05-20T10:21:03.269Z,16.24
2016-05-20T10:22:03.302Z,16.21
2016-05-20T10:23:03.336Z,16.2
2016-05-20T10:24:03.230Z,16.26
2016-05-20T10:25:04.249Z,16.38
2016-05-20T10:26:03.454Z,16.31
2016-05-20T10:27:03.472Z,16.47
2016-05-20T10:28:03.537Z,16.56
2016-05-20T10:29:03.556Z,16.51
2016-05-20T10:30:03.762Z,16.57
2016-05-20T10:31:03.671Z,16.6
2016-05-20T10:32:03.673Z,16.56
2016-05-20T10:33:03.410Z,16.5
2016-05-20T10:34:03.741Z,16.68
2016-05-20T10:35:03.807Z,16.61
2016-05-20T10:36:03.809Z,16.61
2016-05-20T10:37:03.906Z,16.61
2016-05-20T10:38:03.877Z,16.47
2016-05-20T10:39:03.926Z,16.46
2016-05-20T10:40:04.289Z,16.49
2016-05-20T10:41:03.995Z,16.6
2016-05-20T10:42:03.872Z,16.58
2016-05-20T10:43:04.079Z,16.61
2016-05-20T10:44:03.955Z,16.68
2016-05-20T10:45:04.146Z,16.78
2016-05-20T10:46:04.196Z,16.96
2016-05-20T10:47:04.230Z,17.15
2016-05-20T10:48:04.248Z,17.23
2016-05-20T10:49:04.298Z,17.36
2016-05-20T10:50:04.347Z,17.36
2016-05-20T10:51:04.411Z,17.36
2016-05-20T10:52:04.400Z,17.42
2016-05-20T10:53:04.449Z,17.44
2016-05-20T10:54:04.483Z,17.7
2016-05-20T10:55:04.751Z,17.8
2016-05-20T10:56:04.582Z,17.92
2016-05-20T10:57:04.600Z,17.67
2016-05-20T10:58:04.478Z,17.63
2016-05-20T10:59:04.684Z,17.51
2016-05-20T11:00:04.701Z,17.6
2016-05-20T11:01:04.751Z,17.49
2016-05-20T11:02:04.629Z,17.39
2016-05-20T11:03:05.132Z,17.38
2016-05-20T11:04:04.901Z,17.36
2016-05-20T11:05:04.746Z,17.31
2016-05-20T11:06:04.937Z,17.29
2016-05-20T11:07:04.987Z,17.41
2016-05-20T11:08:05.020Z,17.42
2016-05-20T11:09:05.054Z,17.51
2016-05-20T11:10:07.526Z,17.49
2016-05-20T11:11:05.201Z,17.52
2016-05-20T11:12:05.173Z,17.39
2016-05-20T11:13:05.206Z,17.27
2016-05-20T11:14:05.255Z,17.08
2016-05-20T11:15:05.226Z,17.06
2016-05-20T11:16:05.370Z,16.97
2016-05-20T11:17:05.264Z,17.19
2016-05-20T11:18:05.406Z,17.3
2016-05-20T11:19:05.456Z,17.29
2016-05-20T11:20:05.475Z,17.41
2016-05-20T11:21:05.508Z,17.39
2016-05-20T11:22:05.558Z,17.33
2016-05-20T11:23:05.294Z,17.31
2016-05-20T11:24:05.469Z,17.26
2016-05-20T11:25:05.582Z,17.16
2016-05-20T11:26:05.725Z,17.24
2016-05-20T11:27:05.743Z,17.3
2016-05-20T11:28:05.777Z,17.3
2016-05-20T11:29:05.671Z,17.39
2016-05-20T11:30:05.861Z,17.41
2016-05-20T11:31:05.895Z,17.56
2016-05-20T11:32:05.788Z,17.68
2016-05-20T11:33:05.822Z,17.65
2016-05-20T11:34:05.887Z,17.78
2016-05-20T11:35:06.062Z,17.79
2016-05-20T11:36:06.080Z,17.79
2016-05-20T11:37:05.973Z,17.67
2016-05-20T11:38:06.179Z,17.51
2016-05-20T11:39:06.197Z,17.64
2016-05-20T11:40:05.965Z,17.63
2016-05-20T11:41:06.281Z,17.68
2016-05-20T11:42:06.159Z,17.7
2016-05-20T11:43:06.364Z,17.67
2016-05-20T11:44:06.227Z,17.74
2016-05-20T11:45:06.432Z,17.65
2016-05-20T11:46:06.466Z,17.72
2016-05-20T11:47:06.375Z,17.71
2016-05-20T11:48:06.394Z,17.79
2016-05-20T11:49:06.568Z,17.86
2016-05-20T11:50:06.461Z,17.89
2016-05-20T11:51:06.668Z,17.82
2016-05-20T11:52:06.700Z,17.67
2016-05-20T11:53:06.735Z,17.45
2016-05-20T11:54:06.785Z,17.41
2016-05-20T11:55:06.522Z,17.27
2016-05-20T11:56:06.837Z,17.42
2016-05-20T11:57:06.886Z,17.41
2016-05-20T11:58:06.608Z,17.49
2016-05-20T11:59:06.986Z,17.52
2016-05-20T12:00:07.004Z,17.64
2016-05-20T12:01:07.054Z,17.78
2016-05-20T12:02:07.072Z,17.64
2016-05-20T12:03:07.121Z,17.54
2016-05-20T12:04:07.140Z,17.59
2016-05-20T12:05:07.346Z,17.49
2016-05-20T12:06:07.113Z,17.52
2016-05-20T12:07:07.273Z,17.34
2016-05-20T12:08:07.290Z,17.3
2016-05-20T12:09:07.419Z,17.23
2016-05-20T12:10:07.765Z,17.23
2016-05-20T12:11:07.268Z,17.11
2016-05-20T12:12:07.459Z,17.16
2016-05-20T12:13:08.165Z,17.15
2016-05-20T12:14:07.557Z,17.24
2016-05-20T12:15:07.591Z,17.29
2016-05-20T12:16:07.609Z,17.34
2016-05-20T12:17:07.659Z,17.33
2016-05-20T12:18:08.193Z,17.39
2016-05-20T12:19:07.727Z,17.42
2016-05-20T12:20:07.776Z,17.46
2016-05-20T12:21:07.653Z,17.72
2016-05-20T12:22:07.844Z,17.63
2016-05-20T12:23:09.175Z,17.65
2016-05-20T12:24:07.928Z,17.63
2016-05-20T12:25:08.603Z,17.64
2016-05-20T12:26:07.996Z,17.57
2016-05-20T12:27:07.858Z,17.39
2016-05-20T12:28:07.908Z,17.3
2016-05-20T12:29:08.097Z,17.36
2016-05-20T12:30:08.147Z,17.31
2016-05-20T12:31:08.181Z,17.38
2016-05-20T12:32:08.230Z,17.19
2016-05-20T12:33:08.093Z,17.2
2016-05-20T12:34:08.283Z,17.09
2016-05-20T12:35:08.177Z,17.06
2016-05-20T12:36:08.210Z,17.02
2016-05-20T12:37:08.401Z,16.96
2016-05-20T12:38:08.465Z,16.97
2016-05-20T12:39:08.485Z,16.97
2016-05-20T12:40:08.846Z,17.01
2016-05-20T12:41:08.567Z,16.94
2016-05-20T12:42:08.586Z,17.06
2016-05-20T12:43:08.651Z,17.05
2016-05-20T12:44:08.670Z,17.11
2016-05-20T12:45:08.703Z,16.97
2016-05-20T12:46:08.737Z,16.81
2016-05-20T12:47:08.786Z,16.75
2016-05-20T12:48:08.805Z,16.78
2016-05-20T12:49:08.886Z,16.78
2016-05-20T12:50:08.889Z,16.83
2016-05-20T12:51:08.923Z,16.86
2016-05-20T12:52:08.972Z,16.78
2016-05-20T12:53:09.022Z,16.56
2016-05-20T12:54:09.040Z,16.53
2016-05-20T12:55:09.231Z,16.72
2016-05-20T12:56:09.138Z,16.75
2016-05-20T12:57:09.141Z,16.79
2016-05-20T12:58:09.192Z,16.78